sensor_id;sensor_type;location;lat;lon;timestamp;pressure;altitude;pressure_sealevel;temperature
76009;BMP280;64700;52.130;21.270;2023-02-26T00:00:11;99064.03;;;17.14
76009;BMP280;64700;52.130;21.270;2023-02-26T00:02:42;99068.19;;;17.15
76009;BMP280;64700;52.130;21.270;2023-02-26T00:05:10;99073.13;;;17.16
76009;BMP280;64700;52.130;21.270;2023-02-26T00:07:36;99082.72;;;17.17
76009;BMP280;64700;52.130;21.270;2023-02-26T00:10:02;99087.09;;;17.15
76009;BMP280;64700;52.130;21.270;2023-02-26T00:12:28;99098.41;;;17.13
76009;BMP280;64700;52.130;21.270;2023-02-26T00:14:55;99091.50;;;17.12
76009;BMP280;64700;52.130;21.270;2023-02-26T00:19:46;99109.38;;;17.10
76009;BMP280;64700;52.130;21.270;2023-02-26T00:22:12;99111.63;;;17.11
76009;BMP280;64700;52.130;21.270;2023-02-26T00:24:37;99115.28;;;17.08
76009;BMP280;64700;52.130;21.270;2023-02-26T00:27:03;99118.22;;;17.10
76009;BMP280;64700;52.130;21.270;2023-02-26T00:29:28;99117.75;;;17.12
76009;BMP280;64700;52.130;21.270;2023-02-26T00:31:54;99130.06;;;17.13
76009;BMP280;64700;52.130;21.270;2023-02-26T00:34:19;99119.72;;;17.11
76009;BMP280;64700;52.130;21.270;2023-02-26T00:39:30;99124.56;;;17.07
76009;BMP280;64700;52.130;21.270;2023-02-26T00:41:58;99130.97;;;17.10
76009;BMP280;64700;52.130;21.270;2023-02-26T00:44:24;99131.72;;;17.10
76009;BMP280;64700;52.130;21.270;2023-02-26T00:47:07;99135.19;;;17.11
76009;BMP280;64700;52.130;21.270;2023-02-26T00:49:43;99136.56;;;17.06
76009;BMP280;64700;52.130;21.270;2023-02-26T00:55:13;99152.59;;;17.10
76009;BMP280;64700;52.130;21.270;2023-02-26T00:57:38;99150.63;;;17.10
76009;BMP280;64700;52.130;21.270;2023-02-26T01:00:04;99155.28;;;17.10
76009;BMP280;64700;52.130;21.270;2023-02-26T01:02:33;99158.28;;;17.12
76009;BMP280;64700;52.130;21.270;2023-02-26T01:04:59;99156.59;;;17.14
76009;BMP280;64700;52.130;21.270;2023-02-26T01:07:25;99156.03;;;17.10
76009;BMP280;64700;52.130;21.270;2023-02-26T01:09:52;99171.03;;;17.11
76009;BMP280;64700;52.130;21.270;2023-02-26T01:12:17;99169.28;;;17.08
76009;BMP280;64700;52.130;21.270;2023-02-26T01:14:43;99168.22;;;17.06
76009;BMP280;64700;52.130;21.270;2023-02-26T01:22:20;99186.22;;;17.09
76009;BMP280;64700;52.130;21.270;2023-02-26T01:24:47;99192.34;;;17.09
76009;BMP280;64700;52.130;21.270;2023-02-26T01:27:13;99199.25;;;17.10
76009;BMP280;64700;52.130;21.270;2023-02-26T01:29:38;99204.63;;;17.10
76009;BMP280;64700;52.130;21.270;2023-02-26T01:32:06;99214.13;;;17.06
76009;BMP280;64700;52.130;21.270;2023-02-26T01:34:35;99215.63;;;17.07
76009;BMP280;64700;52.130;21.270;2023-02-26T01:39:43;99230.88;;;17.10
76009;BMP280;64700;52.130;21.270;2023-02-26T01:44:48;99243.56;;;17.04
76009;BMP280;64700;52.130;21.270;2023-02-26T01:49:46;99255.47;;;17.12
76009;BMP280;64700;52.130;21.270;2023-02-26T01:54:55;99260.03;;;17.06
76009;BMP280;64700;52.130;21.270;2023-02-26T01:57:20;99264.41;;;17.03
76009;BMP280;64700;52.130;21.270;2023-02-26T01:59:48;99268.59;;;17.04
76009;BMP280;64700;52.130;21.270;2023-02-26T02:02:16;99279.88;;;17.03
76009;BMP280;64700;52.130;21.270;2023-02-26T02:04:42;99283.31;;;17.03
76009;BMP280;64700;52.130;21.270;2023-02-26T02:07:08;99285.53;;;17.05
76009;BMP280;64700;52.130;21.270;2023-02-26T02:09:34;99287.50;;;17.04
76009;BMP280;64700;52.130;21.270;2023-02-26T02:14:36;99297.38;;;17.07
76009;BMP280;64700;52.130;21.270;2023-02-26T02:19:39;99306.03;;;17.11
76009;BMP280;64700;52.130;21.270;2023-02-26T02:22:14;99308.28;;;17.13
76009;BMP280;64700;52.130;21.270;2023-02-26T02:24:52;99309.28;;;17.15
76009;BMP280;64700;52.130;21.270;2023-02-26T02:27:39;99308.84;;;17.17
76009;BMP280;64700;52.130;21.270;2023-02-26T02:30:25;99318.69;;;17.20
76009;BMP280;64700;52.130;21.270;2023-02-26T02:33:01;99332.06;;;17.23
76009;BMP280;64700;52.130;21.270;2023-02-26T02:35:29;99329.34;;;17.23
76009;BMP280;64700;52.130;21.270;2023-02-26T02:37:57;99335.09;;;17.31
76009;BMP280;64700;52.130;21.270;2023-02-26T02:40:26;99332.16;;;17.29
76009;BMP280;64700;52.130;21.270;2023-02-26T02:45:21;99336.59;;;17.32
76009;BMP280;64700;52.130;21.270;2023-02-26T02:47:51;99349.38;;;17.32
76009;BMP280;64700;52.130;21.270;2023-02-26T02:50:26;99349.91;;;17.36
76009;BMP280;64700;52.130;21.270;2023-02-26T02:52:55;99349.91;;;17.36
76009;BMP280;64700;52.130;21.270;2023-02-26T02:55:30;99367.44;;;17.40
76009;BMP280;64700;52.130;21.270;2023-02-26T02:57:58;99372.59;;;17.38
76009;BMP280;64700;52.130;21.270;2023-02-26T03:00:25;99379.28;;;17.43
76009;BMP280;64700;52.130;21.270;2023-02-26T03:05:32;99392.16;;;17.48
76009;BMP280;64700;52.130;21.270;2023-02-26T03:08:01;99393.81;;;17.45
76009;BMP280;64700;52.130;21.270;2023-02-26T03:10:27;99399.03;;;17.49
76009;BMP280;64700;52.130;21.270;2023-02-26T03:12:53;99407.25;;;17.54
76009;BMP280;64700;52.130;21.270;2023-02-26T03:15:21;99417.78;;;17.52
76009;BMP280;64700;52.130;21.270;2023-02-26T03:17:59;99417.59;;;17.56
76009;BMP280;64700;52.130;21.270;2023-02-26T03:20:32;99423.47;;;17.54
76009;BMP280;64700;52.130;21.270;2023-02-26T03:25:26;99436.06;;;17.57
76009;BMP280;64700;52.130;21.270;2023-02-26T03:33:11;99445.25;;;17.51
76009;BMP280;64700;52.130;21.270;2023-02-26T03:38:19;99457.13;;;17.53
76009;BMP280;64700;52.130;21.270;2023-02-26T03:40:55;99461.59;;;17.56
76009;BMP280;64700;52.130;21.270;2023-02-26T03:43:24;99470.44;;;17.57
76009;BMP280;64700;52.130;21.270;2023-02-26T03:45:51;99474.16;;;17.59
76009;BMP280;64700;52.130;21.270;2023-02-26T03:48:22;99476.31;;;17.55
76009;BMP280;64700;52.130;21.270;2023-02-26T03:50:50;99478.34;;;17.60
76009;BMP280;64700;52.130;21.270;2023-02-26T03:53:18;99483.75;;;17.60
76009;BMP280;64700;52.130;21.270;2023-02-26T03:58:11;99490.09;;;17.57
76009;BMP280;64700;52.130;21.270;2023-02-26T04:00:37;99492.53;;;17.55
76009;BMP280;64700;52.130;21.270;2023-02-26T04:05:38;99494.03;;;17.56
76009;BMP280;64700;52.130;21.270;2023-02-26T04:08:05;99499.72;;;17.58
76009;BMP280;64700;52.130;21.270;2023-02-26T04:11:13;99504.09;;;17.56
76009;BMP280;64700;52.130;21.270;2023-02-26T04:13:20;99513.41;;;17.55
76009;BMP280;64700;52.130;21.270;2023-02-26T04:15:45;99500.78;;;17.52
76009;BMP280;64700;52.130;21.270;2023-02-26T04:18:10;99505.56;;;17.57
76009;BMP280;64700;52.130;21.270;2023-02-26T04:20:36;99515.94;;;17.58
76009;BMP280;64700;52.130;21.270;2023-02-26T04:23:01;99520.28;;;17.56
76009;BMP280;64700;52.130;21.270;2023-02-26T04:25:27;99523.47;;;17.54
76009;BMP280;64700;52.130;21.270;2023-02-26T04:27:52;99530.09;;;17.53
76009;BMP280;64700;52.130;21.270;2023-02-26T04:30:18;99536.69;;;17.52
76009;BMP280;64700;52.130;21.270;2023-02-26T04:32:43;99538.94;;;17.54
76009;BMP280;64700;52.130;21.270;2023-02-26T04:35:09;99541.66;;;17.54
76009;BMP280;64700;52.130;21.270;2023-02-26T04:37:34;99548.25;;;17.53
76009;BMP280;64700;52.130;21.270;2023-02-26T04:40:00;99547.19;;;17.50
76009;BMP280;64700;52.130;21.270;2023-02-26T04:42:25;99550.38;;;17.49
76009;BMP280;64700;52.130;21.270;2023-02-26T04:44:51;99555.28;;;17.50
76009;BMP280;64700;52.130;21.270;2023-02-26T04:47:16;99548.88;;;17.48
76009;BMP280;64700;52.130;21.270;2023-02-26T04:49:41;99557.25;;;17.50
76009;BMP280;64700;52.130;21.270;2023-02-26T04:52:07;99554.41;;;17.53
76009;BMP280;64700;52.130;21.270;2023-02-26T04:54:32;99555.28;;;17.50
76009;BMP280;64700;52.130;21.270;2023-02-26T04:56:57;99557.25;;;17.50
76009;BMP280;64700;52.130;21.270;2023-02-26T04:59:23;99564.34;;;17.47
76009;BMP280;64700;52.130;21.270;2023-02-26T05:01:48;99565.53;;;17.46
76009;BMP280;64700;52.130;21.270;2023-02-26T05:04:14;99563.13;;;17.48
76009;BMP280;64700;52.130;21.270;2023-02-26T05:06:39;99575.59;;;17.46
76009;BMP280;64700;52.130;21.270;2023-02-26T05:09:05;99581.75;;;17.46
76009;BMP280;64700;52.130;21.270;2023-02-26T05:11:31;99579.50;;;17.45
76009;BMP280;64700;52.130;21.270;2023-02-26T05:13:57;99587.16;;;17.46
76009;BMP280;64700;52.130;21.270;2023-02-26T05:16:22;99593.31;;;17.47
76009;BMP280;64700;52.130;21.270;2023-02-26T05:18:48;99598.28;;;17.48
76009;BMP280;64700;52.130;21.270;2023-02-26T05:21:14;99603.50;;;17.52
76009;BMP280;64700;52.130;21.270;2023-02-26T05:23:39;99602.91;;;17.48
76009;BMP280;64700;52.130;21.270;2023-02-26T05:26:04;99606.53;;;17.45
76009;BMP280;64700;52.130;21.270;2023-02-26T05:28:30;99619.78;;;17.43
76009;BMP280;64700;52.130;21.270;2023-02-26T05:30:56;99627.69;;;17.46
76009;BMP280;64700;52.130;21.270;2023-02-26T05:33:22;99617.81;;;17.43
76009;BMP280;64700;52.130;21.270;2023-02-26T05:35:48;99629.53;;;17.40
76009;BMP280;64700;52.130;21.270;2023-02-26T05:38:14;99634.50;;;17.42
76009;BMP280;64700;52.130;21.270;2023-02-26T05:40:39;99647.56;;;17.43
76009;BMP280;64700;52.130;21.270;2023-02-26T05:43:05;99650.25;;;17.43
76009;BMP280;64700;52.130;21.270;2023-02-26T05:45:30;99654.91;;;17.43
76009;BMP280;64700;52.130;21.270;2023-02-26T05:47:55;99655.34;;;17.41
76009;BMP280;64700;52.130;21.270;2023-02-26T05:50:21;99664.78;;;17.46
76009;BMP280;64700;52.130;21.270;2023-02-26T05:52:46;99660.00;;;17.41
76009;BMP280;64700;52.130;21.270;2023-02-26T05:55:12;99671.13;;;17.43
76009;BMP280;64700;52.130;21.270;2023-02-26T05:57:38;99675.47;;;17.40
76009;BMP280;64700;52.130;21.270;2023-02-26T06:00:05;99680.13;;;17.40
76009;BMP280;64700;52.130;21.270;2023-02-26T06:02:30;99682.38;;;17.41
76009;BMP280;64700;52.130;21.270;2023-02-26T06:04:56;99689.28;;;17.42
76009;BMP280;64700;52.130;21.270;2023-02-26T06:07:21;99688.97;;;17.40
76009;BMP280;64700;52.130;21.270;2023-02-26T06:09:48;99701.03;;;17.39
76009;BMP280;64700;52.130;21.270;2023-02-26T06:12:14;99705.50;;;17.42
76009;BMP280;64700;52.130;21.270;2023-02-26T06:14:39;99701.03;;;17.39
76009;BMP280;64700;52.130;21.270;2023-02-26T06:17:05;99706.56;;;17.36
76009;BMP280;64700;52.130;21.270;2023-02-26T06:22:35;99718.84;;;17.37
76009;BMP280;64700;52.130;21.270;2023-02-26T06:25:00;99726.53;;;17.38
76009;BMP280;64700;52.130;21.270;2023-02-26T06:27:26;99728.16;;;17.36
76009;BMP280;64700;52.130;21.270;2023-02-26T06:29:51;99734.31;;;17.36
76009;BMP280;64700;52.130;21.270;2023-02-26T06:32:17;99743.63;;;17.35
76009;BMP280;64700;52.130;21.270;2023-02-26T06:34:42;99748.28;;;17.35
76009;BMP280;64700;52.130;21.270;2023-02-26T06:37:08;99760.75;;;17.32
76009;BMP280;64700;52.130;21.270;2023-02-26T06:39:34;99764.50;;;17.35
76009;BMP280;64700;52.130;21.270;2023-02-26T06:41:59;99774.56;;;17.34
76009;BMP280;64700;52.130;21.270;2023-02-26T06:44:41;99770.19;;;17.37
76009;BMP280;64700;52.130;21.270;2023-02-26T06:47:09;99776.06;;;17.35
76009;BMP280;64700;52.130;21.270;2023-02-26T06:49:34;99781.75;;;17.37
76009;BMP280;64700;52.130;21.270;2023-02-26T06:52:00;99800.38;;;17.35
76009;BMP280;64700;52.130;21.270;2023-02-26T06:54:25;99795.72;;;17.36
76009;BMP280;64700;52.130;21.270;2023-02-26T06:56:51;99804.75;;;17.33
76009;BMP280;64700;52.130;21.270;2023-02-26T06:59:17;99809.22;;;17.36
76009;BMP280;64700;52.130;21.270;2023-02-26T07:01:42;99811.19;;;17.35
76009;BMP280;64700;52.130;21.270;2023-02-26T07:04:10;99811.81;;;17.39
76009;BMP280;64700;52.130;21.270;2023-02-26T07:06:36;99818.41;;;17.38
76009;BMP280;64700;52.130;21.270;2023-02-26T07:12:08;99837.00;;;17.36
76009;BMP280;64700;52.130;21.270;2023-02-26T07:14:34;99844.53;;;17.32
76009;BMP280;64700;52.130;21.270;2023-02-26T07:17:00;99846.31;;;17.35
76009;BMP280;64700;52.130;21.270;2023-02-26T07:19:26;99853.97;;;17.37
76009;BMP280;64700;52.130;21.270;2023-02-26T07:21:52;99859.69;;;17.39
76009;BMP280;64700;52.130;21.270;2023-02-26T07:24:19;99858.63;;;17.36
76009;BMP280;64700;52.130;21.270;2023-02-26T07:26:44;99863.59;;;17.38
76009;BMP280;64700;52.130;21.270;2023-02-26T07:29:10;99867.16;;;17.35
76009;BMP280;64700;52.130;21.270;2023-02-26T07:31:35;99876.66;;;17.39
76009;BMP280;64700;52.130;21.270;2023-02-26T07:34:01;99878.44;;;17.42
76009;BMP280;64700;52.130;21.270;2023-02-26T07:36:27;99880.22;;;17.36
76009;BMP280;64700;52.130;21.270;2023-02-26T07:38:53;99893.59;;;17.40
76009;BMP280;64700;52.130;21.270;2023-02-26T07:41:18;99898.88;;;17.43
76009;BMP280;64700;52.130;21.270;2023-02-26T07:43:44;99901.56;;;17.43
76009;BMP280;64700;52.130;21.270;2023-02-26T07:46:10;99902.91;;;17.48
76009;BMP280;64700;52.130;21.270;2023-02-26T07:48:36;99911.28;;;17.50
76009;BMP280;64700;52.130;21.270;2023-02-26T07:51:01;99910.25;;;17.47
76009;BMP280;64700;52.130;21.270;2023-02-26T07:53:27;99916.69;;;17.50
76009;BMP280;64700;52.130;21.270;2023-02-26T07:55:52;99922.25;;;17.55
76009;BMP280;64700;52.130;21.270;2023-02-26T07:58:18;99926.63;;;17.53
76009;BMP280;64700;52.130;21.270;2023-02-26T08:00:43;99924.22;;;17.55
76009;BMP280;64700;52.130;21.270;2023-02-26T08:03:09;99916.25;;;17.51
76009;BMP280;64700;52.130;21.270;2023-02-26T08:05:35;99930.09;;;17.53
76009;BMP280;64700;52.130;21.270;2023-02-26T08:08:00;99934.13;;;17.58
76009;BMP280;64700;52.130;21.270;2023-02-26T08:10:26;99936.38;;;17.59
76009;BMP280;64700;52.130;21.270;2023-02-26T08:12:52;99940.44;;;17.55
76009;BMP280;64700;52.130;21.270;2023-02-26T08:15:17;99946.31;;;17.53
76009;BMP280;64700;52.130;21.270;2023-02-26T08:17:43;99953.81;;;17.58
76009;BMP280;64700;52.130;21.270;2023-02-26T08:20:09;99956.34;;;17.62
76009;BMP280;64700;52.130;21.270;2023-02-26T08:22:35;99945.53;;;17.62
76009;BMP280;64700;52.130;21.270;2023-02-26T08:25:01;99952.88;;;17.61
76009;BMP280;64700;52.130;21.270;2023-02-26T08:27:27;99953.19;;;17.63
76009;BMP280;64700;52.130;21.270;2023-02-26T08:33:10;99972.72;;;17.67
76009;BMP280;64700;52.130;21.270;2023-02-26T08:35:35;99974.97;;;17.69
76009;BMP280;64700;52.130;21.270;2023-02-26T08:38:01;99978.13;;;17.67
76009;BMP280;64700;52.130;21.270;2023-02-26T08:40:26;99987.41;;;17.66
76009;BMP280;64700;52.130;21.270;2023-02-26T08:42:52;99987.13;;;17.74
76009;BMP280;64700;52.130;21.270;2023-02-26T08:45:17;99989.81;;;17.74
76009;BMP280;64700;52.130;21.270;2023-02-26T08:47:42;99998.38;;;17.81
76009;BMP280;64700;52.130;21.270;2023-02-26T08:53:08;100016.25;;;17.79
76009;BMP280;64700;52.130;21.270;2023-02-26T08:55:33;100019.88;;;17.76
76009;BMP280;64700;52.130;21.270;2023-02-26T08:57:59;100031.75;;;17.78
76009;BMP280;64700;52.130;21.270;2023-02-26T09:00:24;100037.78;;;17.82
76009;BMP280;64700;52.130;21.270;2023-02-26T09:02:50;100040.13;;;17.80
76009;BMP280;64700;52.130;21.270;2023-02-26T09:05:15;100043.75;;;17.77
76009;BMP280;64700;52.130;21.270;2023-02-26T09:07:41;100049.91;;;17.78
76009;BMP280;64700;52.130;21.270;2023-02-26T09:13:10;100054.75;;;17.83
76009;BMP280;64700;52.130;21.270;2023-02-26T09:15:35;100070.06;;;17.86
76009;BMP280;64700;52.130;21.270;2023-02-26T09:18:00;100068.41;;;17.88
76009;BMP280;64700;52.130;21.270;2023-02-26T09:20:26;100070.38;;;17.88
76009;BMP280;64700;52.130;21.270;2023-02-26T09:22:51;100075.59;;;17.91
76009;BMP280;64700;52.130;21.270;2023-02-26T09:25:17;100080.72;;;17.98
76009;BMP280;64700;52.130;21.270;2023-02-26T09:27:42;100083.28;;;18.02
76009;BMP280;64700;52.130;21.270;2023-02-26T09:30:08;100088.81;;;17.98
76009;BMP280;64700;52.130;21.270;2023-02-26T09:32:34;100096.63;;;18.05
76009;BMP280;64700;52.130;21.270;2023-02-26T09:35:00;100107.16;;;18.03
76009;BMP280;64700;52.130;21.270;2023-02-26T09:37:26;100102.06;;;18.15
76009;BMP280;64700;52.130;21.270;2023-02-26T09:39:52;100102.47;;;18.22
76009;BMP280;64700;52.130;21.270;2023-02-26T09:47:49;100106.81;;;18.47
76009;BMP280;64700;52.130;21.270;2023-02-26T09:50:31;100112.09;;;18.41
76009;BMP280;64700;52.130;21.270;2023-02-26T09:53:11;100122.78;;;18.45
76009;BMP280;64700;52.130;21.270;2023-02-26T09:55:41;100119.00;;;18.42
76009;BMP280;64700;52.130;21.270;2023-02-26T09:58:14;100130.41;;;18.46
76009;BMP280;64700;52.130;21.270;2023-02-26T10:00:51;100130.72;;;18.49
76009;BMP280;64700;52.130;21.270;2023-02-26T10:04:20;100130.28;;;18.41
76009;BMP280;64700;52.130;21.270;2023-02-26T10:08:43;100141.88;;;18.32
76009;BMP280;64700;52.130;21.270;2023-02-26T10:11:28;100149.81;;;18.36
76009;BMP280;64700;52.130;21.270;2023-02-26T10:14:04;100154.94;;;18.43
76009;BMP280;64700;52.130;21.270;2023-02-26T10:16:34;100156.28;;;18.38
76009;BMP280;64700;52.130;21.270;2023-02-26T10:19:06;100157.31;;;18.50
76009;BMP280;64700;52.130;21.270;2023-02-26T10:21:35;100168.91;;;18.51
76009;BMP280;64700;52.130;21.270;2023-02-26T10:24:05;100165.16;;;18.39
76009;BMP280;64700;52.130;21.270;2023-02-26T10:26:34;100168.03;;;18.35
76009;BMP280;64700;52.130;21.270;2023-02-26T10:41:48;100193.75;;;18.40
76009;BMP280;64700;52.130;21.270;2023-02-26T10:44:18;100199.28;;;18.36
76009;BMP280;64700;52.130;21.270;2023-02-26T10:46:47;100207.41;;;18.36
76009;BMP280;64700;52.130;21.270;2023-02-26T10:51:48;100213.00;;;18.42
76009;BMP280;64700;52.130;21.270;2023-02-26T10:54:21;100216.13;;;18.31
76009;BMP280;64700;52.130;21.270;2023-02-26T10:56:48;100214.34;;;18.37
76009;BMP280;64700;52.130;21.270;2023-02-26T10:59:14;100231.19;;;18.32
76009;BMP280;64700;52.130;21.270;2023-02-26T11:01:39;100225.31;;;18.34
76009;BMP280;64700;52.130;21.270;2023-02-26T11:04:12;100221.84;;;18.24
76009;BMP280;64700;52.130;21.270;2023-02-26T11:06:47;100231.78;;;18.18
76009;BMP280;64700;52.130;21.270;2023-02-26T11:09:24;100222.91;;;18.27
76009;BMP280;64700;52.130;21.270;2023-02-26T11:11:52;100226.06;;;18.25
76009;BMP280;64700;52.130;21.270;2023-02-26T11:14:18;100239.13;;;18.18
76009;BMP280;64700;52.130;21.270;2023-02-26T11:16:55;100233.28;;;18.19
76009;BMP280;64700;52.130;21.270;2023-02-26T11:22:13;100240.66;;;18.19
76009;BMP280;64700;52.130;21.270;2023-02-26T11:24:45;100251.47;;;18.19
76009;BMP280;64700;52.130;21.270;2023-02-26T11:27:31;100251.50;;;18.28
76009;BMP280;64700;52.130;21.270;2023-02-26T11:29:59;100252.25;;;18.28
76009;BMP280;64700;52.130;21.270;2023-02-26T11:32:34;100252.38;;;18.25
76009;BMP280;64700;52.130;21.270;2023-02-26T11:35:00;100260.38;;;18.28
76009;BMP280;64700;52.130;21.270;2023-02-26T11:37:30;100261.56;;;18.27
76009;BMP280;64700;52.130;21.270;2023-02-26T11:39:59;100263.38;;;18.30
76009;BMP280;64700;52.130;21.270;2023-02-26T11:42:29;100265.34;;;18.30
76009;BMP280;64700;52.130;21.270;2023-02-26T11:44:59;100261.25;;;18.25
76009;BMP280;64700;52.130;21.270;2023-02-26T11:47:25;100272.53;;;18.33
76009;BMP280;64700;52.130;21.270;2023-02-26T11:49:54;100274.94;;;18.40
76009;BMP280;64700;52.130;21.270;2023-02-26T11:52:21;100273.59;;;18.35
76009;BMP280;64700;52.130;21.270;2023-02-26T11:54:50;100283.97;;;18.37
76009;BMP280;64700;52.130;21.270;2023-02-26T11:57:19;100284.28;;;18.48
76009;BMP280;64700;52.130;21.270;2023-02-26T11:59:48;100289.69;;;18.48
76009;BMP280;64700;52.130;21.270;2023-02-26T12:02:17;100294.81;;;18.46
76009;BMP280;64700;52.130;21.270;2023-02-26T12:04:44;100301.28;;;18.49
76009;BMP280;64700;52.130;21.270;2023-02-26T12:07:11;100298.25;;;18.46
76009;BMP280;64700;52.130;21.270;2023-02-26T12:09:37;100299.31;;;18.40
76009;BMP280;64700;52.130;21.270;2023-02-26T12:38:19;100343.31;;;18.22
76009;BMP280;64700;52.130;21.270;2023-02-26T12:40:55;100345.91;;;18.17
76009;BMP280;64700;52.130;21.270;2023-02-26T12:48:39;100362.53;;;18.06
76009;BMP280;64700;52.130;21.270;2023-02-26T13:04:16;100376.97;;;18.12
76009;BMP280;64700;52.130;21.270;2023-02-26T13:14:41;100378.63;;;18.10
76009;BMP280;64700;52.130;21.270;2023-02-26T13:17:22;100382.38;;;18.12
76009;BMP280;64700;52.130;21.270;2023-02-26T13:19:53;100383.78;;;18.17
76009;BMP280;64700;52.130;21.270;2023-02-26T13:22:20;100384.81;;;18.19
76009;BMP280;64700;52.130;21.270;2023-02-26T13:24:55;100385.13;;;18.21
76009;BMP280;64700;52.130;21.270;2023-02-26T13:27:27;100398.34;;;18.19
76009;BMP280;64700;52.130;21.270;2023-02-26T13:32:47;100400.25;;;18.10
76009;BMP280;64700;52.130;21.270;2023-02-26T13:35:20;100397.38;;;18.04
76009;BMP280;64700;52.130;21.270;2023-02-26T13:37:49;100409.66;;;17.96
76009;BMP280;64700;52.130;21.270;2023-02-26T13:40:28;100402.47;;;17.93
76009;BMP280;64700;52.130;21.270;2023-02-26T13:43:22;100409.50;;;17.90
76009;BMP280;64700;52.130;21.270;2023-02-26T13:46:11;100414.63;;;17.88
76009;BMP280;64700;52.130;21.270;2023-02-26T13:54:08;100418.81;;;17.89
76009;BMP280;64700;52.130;21.270;2023-02-26T14:01:28;100423.50;;;17.98
76009;BMP280;64700;52.130;21.270;2023-02-26T14:04:06;100422.63;;;18.01
76009;BMP280;64700;52.130;21.270;2023-02-26T14:06:44;100426.53;;;18.00
76009;BMP280;64700;52.130;21.270;2023-02-26T14:19:44;100443.09;;;18.02
76009;BMP280;64700;52.130;21.270;2023-02-26T14:22:36;100436.03;;;18.04
76009;BMP280;64700;52.130;21.270;2023-02-26T14:27:40;100434.38;;;18.07
76009;BMP280;64700;52.130;21.270;2023-02-26T14:35:09;100452.09;;;17.99
76009;BMP280;64700;52.130;21.270;2023-02-26T14:37:35;100449.09;;;17.97
76009;BMP280;64700;52.130;21.270;2023-02-26T14:40:05;100459.31;;;18.02
76009;BMP280;64700;52.130;21.270;2023-02-26T14:42:34;100464.41;;;18.00
76009;BMP280;64700;52.130;21.270;2023-02-26T14:48:06;100460.59;;;17.88
76009;BMP280;64700;52.130;21.270;2023-02-26T14:50:36;100473.03;;;17.86
76009;BMP280;64700;52.130;21.270;2023-02-26T14:53:11;100470.88;;;17.81
76009;BMP280;64700;52.130;21.270;2023-02-26T14:58:31;100483.03;;;17.76
76009;BMP280;64700;52.130;21.270;2023-02-26T15:03:58;100483.38;;;17.78
76009;BMP280;64700;52.130;21.270;2023-02-26T15:09:19;100490.53;;;17.72
76009;BMP280;64700;52.130;21.270;2023-02-26T15:12:01;100502.31;;;17.65
76009;BMP280;64700;52.130;21.270;2023-02-26T15:17:17;100506.13;;;17.68
76009;BMP280;64700;52.130;21.270;2023-02-26T15:22:33;100507.75;;;17.65
76009;BMP280;64700;52.130;21.270;2023-02-26T15:25:02;100511.84;;;17.70
76009;BMP280;64700;52.130;21.270;2023-02-26T15:27:29;100512.09;;;17.63
76009;BMP280;64700;52.130;21.270;2023-02-26T15:29:55;100513.41;;;17.58
76009;BMP280;64700;52.130;21.270;2023-02-26T15:32:23;100530.06;;;17.57
76009;BMP280;64700;52.130;21.270;2023-02-26T15:35:00;100533.66;;;17.54
76009;BMP280;64700;52.130;21.270;2023-02-26T15:37:27;100539.06;;;17.54
76009;BMP280;64700;52.130;21.270;2023-02-26T15:42:48;100539.59;;;17.49
76009;BMP280;64700;52.130;21.270;2023-02-26T15:45:18;100540.88;;;17.57
76009;BMP280;64700;52.130;21.270;2023-02-26T15:47:46;100557.44;;;17.59
76009;BMP280;64700;52.130;21.270;2023-02-26T15:50:15;100562.09;;;17.58
76009;BMP280;64700;52.130;21.270;2023-02-26T15:52:41;100552.47;;;17.57
76009;BMP280;64700;52.130;21.270;2023-02-26T15:55:07;100559.19;;;17.53
76009;BMP280;64700;52.130;21.270;2023-02-26T15:57:32;100561.22;;;17.49
76009;BMP280;64700;52.130;21.270;2023-02-26T16:00:04;100560.78;;;17.50
76009;BMP280;64700;52.130;21.270;2023-02-26T16:02:31;100565.13;;;17.48
76009;BMP280;64700;52.130;21.270;2023-02-26T16:04:57;100567.19;;;17.44
76009;BMP280;64700;52.130;21.270;2023-02-26T16:07:23;100567.94;;;17.44
76009;BMP280;64700;52.130;21.270;2023-02-26T16:10:03;100567.94;;;17.44
76009;BMP280;64700;52.130;21.270;2023-02-26T16:12:37;100580.38;;;17.42
76009;BMP280;64700;52.130;21.270;2023-02-26T16:15:06;100579.97;;;17.43
76009;BMP280;64700;52.130;21.270;2023-02-26T16:17:38;100580.81;;;17.40
76009;BMP280;64700;52.130;21.270;2023-02-26T16:20:05;100588.94;;;17.40
76009;BMP280;64700;52.130;21.270;2023-02-26T16:25:07;100603.31;;;17.37
76009;BMP280;64700;52.130;21.270;2023-02-26T16:27:33;100612.28;;;17.34
76009;BMP280;64700;52.130;21.270;2023-02-26T16:30:00;100601.56;;;17.31
76009;BMP280;64700;52.130;21.270;2023-02-26T16:32:29;100610.25;;;17.25
76009;BMP280;64700;52.130;21.270;2023-02-26T16:34:56;100618.44;;;17.22
76009;BMP280;64700;52.130;21.270;2023-02-26T16:37:25;100614.66;;;17.19
76009;BMP280;64700;52.130;21.270;2023-02-26T16:39:51;100619.00;;;17.17
76009;BMP280;64700;52.130;21.270;2023-02-26T16:42:20;100624.41;;;17.17
76009;BMP280;64700;52.130;21.270;2023-02-26T16:45:13;100630.69;;;17.14
76009;BMP280;64700;52.130;21.270;2023-02-26T16:47:34;100633.38;;;17.14
76009;BMP280;64700;52.130;21.270;2023-02-26T16:50:02;100629.03;;;17.16
76009;BMP280;64700;52.130;21.270;2023-02-26T16:52:27;100628.53;;;17.09
76009;BMP280;64700;52.130;21.270;2023-02-26T16:54:55;100636.50;;;17.12
76009;BMP280;64700;52.130;21.270;2023-02-26T16:57:30;100633.94;;;17.09
76009;BMP280;64700;52.130;21.270;2023-02-26T16:59:59;100642.44;;;17.07
76009;BMP280;64700;52.130;21.270;2023-02-26T17:02:31;100644.75;;;17.09
76009;BMP280;64700;52.130;21.270;2023-02-26T17:04:58;100644.75;;;17.09
76009;BMP280;64700;52.130;21.270;2023-02-26T17:07:26;100651.72;;;17.06
76009;BMP280;64700;52.130;21.270;2023-02-26T17:09:55;100655.59;;;17.05
76009;BMP280;64700;52.130;21.270;2023-02-26T17:12:22;100657.88;;;17.07
76009;BMP280;64700;52.130;21.270;2023-02-26T17:14:55;100658.75;;;17.04